Time;durP1;ratioP1;P1;durP2;ratioP2;P2;SDS_P1;SDS_P2;PMS_P1;PMS_P2;Temp;Humidity;BMP_temperature;BMP_pressure;BME280_temperature;BME280_humidity;BME280_pressure;Samples;Min_cycle;Max_cycle;Signal;HPM_P1;HPM_P2
2022/09/14 00:00:51;;;;;;;5.05;1.40;;;14.50;99.90;;;;;;5060140;28;20036;-67
2022/09/14 00:03:18;;;;;;;11.57;1.52;;;14.50;99.90;;;;;;5067648;28;20457;-67
2022/09/14 00:05:43;;;;;;;8.25;1.27;;;14.40;99.90;;;;;;5067004;28;20055;-67
2022/09/14 00:08:10;;;;;;;8.80;1.20;;;14.40;99.90;;;;;;5050027;28;20044;-67
2022/09/14 00:10:53;;;;;;;8.57;1.60;;;14.40;99.90;;;;;;5065173;28;20105;-67
2022/09/14 00:13:19;;;;;;;4.93;1.45;;;14.40;99.90;;;;;;5055830;28;20044;-67
2022/09/14 00:15:45;;;;;;;7.35;1.30;;;14.40;99.90;;;;;;5049448;28;20191;-67
2022/09/14 00:18:10;;;;;;;6.95;1.35;;;14.30;99.90;;;;;;5067327;28;20102;-67
2022/09/14 00:20:36;;;;;;;7.00;1.33;;;14.30;99.90;;;;;;5048414;28;20048;-67
2022/09/14 00:23:02;;;;;;;4.75;1.42;;;14.20;99.90;;;;;;5067230;28;20056;-67
2022/09/14 00:25:28;;;;;;;8.68;1.40;;;14.20;99.90;;;;;;5049656;28;20045;-67
2022/09/14 00:27:56;;;;;;;7.28;1.65;;;14.20;99.90;;;;;;5066378;28;20051;-67
2022/09/14 00:30:22;;;;;;;4.55;1.30;;;14.10;99.90;;;;;;5068562;28;20048;-67
2022/09/14 00:32:48;;;;;;;6.80;1.63;;;14.10;99.90;;;;;;5044401;28;20052;-67
2022/09/14 00:35:14;;;;;;;7.40;1.30;;;14.10;99.90;;;;;;5067053;28;20041;-67
2022/09/14 00:37:39;;;;;;;5.95;1.00;;;14.00;99.90;;;;;;5065533;28;20048;-68
2022/09/14 00:40:06;;;;;;;4.10;1.10;;;14.00;99.90;;;;;;5068536;28;20056;-67
2022/09/14 00:42:32;;;;;;;6.38;1.30;;;13.90;99.90;;;;;;5048144;28;20368;-67
2022/09/14 00:45:01;;;;;;;2.17;0.88;;;13.90;99.90;;;;;;5049922;28;20051;-67
2022/09/14 00:47:29;;;;;;;3.95;1.23;;;13.90;99.90;;;;;;5049995;28;20048;-67
2022/09/14 00:49:55;;;;;;;4.18;1.20;;;13.80;99.90;;;;;;5066106;28;20406;-67
2022/09/14 00:52:24;;;;;;;8.20;1.35;;;13.70;99.90;;;;;;5063378;28;20044;-68
2022/09/14 00:54:54;;;;;;;7.13;1.23;;;13.60;99.90;;;;;;5056620;28;20044;-67
2022/09/14 00:57:21;;;;;;;6.22;1.33;;;13.50;99.90;;;;;;5066887;28;20124;-67
2022/09/14 00:59:50;;;;;;;13.40;1.80;;;13.40;99.90;;;;;;5065252;28;20110;-67
2022/09/14 01:02:17;;;;;;;12.55;1.10;;;13.30;99.90;;;;;;5056674;28;20439;-67
2022/09/14 01:04:43;;;;;;;17.52;2.08;;;13.30;99.90;;;;;;5066091;28;20506;-67
2022/09/14 01:07:44;;;;;;;7.78;1.67;;;13.30;99.90;;;;;;5048992;28;20489;-67
2022/09/14 01:10:28;;;;;;;14.43;1.73;;;13.30;99.90;;;;;;5066375;28;20082;-67
2022/09/14 01:13:12;;;;;;;6.18;1.35;;;13.30;99.90;;;;;;5062934;28;20063;-67
2022/09/14 01:16:07;;;;;;;5.22;1.00;;;13.30;99.90;;;;;;5059591;28;20056;-67
2022/09/14 01:18:41;;;;;;;3.90;1.00;;;13.30;99.90;;;;;;5047848;28;20056;-67
2022/09/14 01:21:16;;;;;;;5.25;1.10;;;13.40;99.90;;;;;;5064969;28;20128;-67
2022/09/14 01:23:59;;;;;;;11.38;1.38;;;13.30;99.90;;;;;;5065178;28;20387;-67
2022/09/14 01:26:34;;;;;;;10.02;1.50;;;13.30;99.90;;;;;;5065223;28;20107;-67
2022/09/14 01:29:17;;;;;;;8.00;1.17;;;13.40;99.90;;;;;;5065206;28;20088;-67
2022/09/14 01:32:02;;;;;;;4.78;1.20;;;13.40;99.90;;;;;;5047570;28;20056;-67
2022/09/14 01:34:42;;;;;;;7.57;1.45;;;13.40;99.90;;;;;;5047583;28;20041;-67
2022/09/14 01:37:28;;;;;;;7.70;1.58;;;13.50;99.90;;;;;;5065959;28;20087;-67
2022/09/14 01:40:20;;;;;;;3.45;1.30;;;13.50;99.90;;;;;;5065420;28;20063;-67
2022/09/14 01:42:50;;;;;;;9.27;1.85;;;13.60;99.90;;;;;;5057143;28;20071;-67
2022/09/14 01:45:19;;;;;;;6.07;1.30;;;13.70;99.90;;;;;;5061560;28;20544;-67
2022/09/14 01:47:59;;;;;;;12.13;1.50;;;13.70;99.90;;;;;;5064973;28;20044;-67
2022/09/14 01:50:27;;;;;;;9.10;1.42;;;13.70;99.90;;;;;;5064954;28;20070;-67
2022/09/14 01:53:10;;;;;;;7.18;1.52;;;13.70;99.90;;;;;;5065395;28;20052;-67
2022/09/14 01:55:50;;;;;;;6.65;1.60;;;13.80;99.90;;;;;;5046079;28;20056;-67
2022/09/14 01:58:27;;;;;;;;;;;13.80;99.90;;;;;;5066204;28;20044;-68
2022/09/14 02:00:55;;;;;;;8.52;1.73;;;13.80;99.90;;;;;;5063323;28;19924;-67
2022/09/14 02:03:28;;;;;;;7.63;1.48;;;13.90;99.90;;;;;;5059782;28;20502;-68
2022/09/14 02:06:00;;;;;;;5.82;1.50;;;13.90;99.90;;;;;;5063662;28;20130;-68
2022/09/14 02:08:28;;;;;;;6.25;1.08;;;13.90;99.90;;;;;;5064077;28;20044;-67
2022/09/14 02:10:56;;;;;;;7.15;1.67;;;13.90;99.90;;;;;;5065059;28;20526;-67
2022/09/14 02:13:22;;;;;;;6.10;1.15;;;14.00;99.90;;;;;;5064766;28;20044;-68
2022/09/14 02:15:48;;;;;;;4.90;1.23;;;14.00;99.90;;;;;;5047087;28;20490;-67
2022/09/14 02:18:14;;;;;;;10.30;1.85;;;14.00;99.90;;;;;;5064606;28;20067;-67
2022/09/14 02:20:49;;;;;;;10.80;1.60;;;14.00;99.90;;;;;;5040883;28;20056;-67
2022/09/14 02:23:16;;;;;;;9.65;1.50;;;14.00;99.90;;;;;;5052744;28;20055;-68
2022/09/14 02:25:41;;;;;;;7.53;1.65;;;14.00;99.90;;;;;;5063587;28;20502;-68
2022/09/14 02:28:07;;;;;;;6.30;1.25;;;14.10;99.90;;;;;;5048109;28;20059;-67
2022/09/14 02:30:58;;;;;;;7.50;1.30;;;14.10;99.90;;;;;;5064323;28;20067;-67
2022/09/14 02:33:55;;;;;;;4.53;1.30;;;14.10;99.90;;;;;;5065005;28;20207;-67
2022/09/14 02:36:35;;;;;;;13.10;2.35;;;14.10;99.90;;;;;;5065991;28;20051;-67
2022/09/14 02:39:25;;;;;;;14.88;2.13;;;14.10;99.90;;;;;;5063550;28;20075;-67
2022/09/14 02:42:35;;;;;;;9.05;1.40;;;14.10;99.90;;;;;;5064297;28;20044;-67
2022/09/14 02:45:14;;;;;;;9.32;1.35;;;14.10;99.90;;;;;;5015226;28;20110;-67
2022/09/14 02:47:46;;;;;;;5.43;1.42;;;14.10;99.90;;;;;;5063919;28;20060;-67
2022/09/14 02:50:41;;;;;;;11.07;2.03;;;14.10;99.90;;;;;;5065040;28;20076;-68
2022/09/14 02:53:30;;;;;;;6.60;1.35;;;14.10;99.90;;;;;;5063647;28;20111;-67
2022/09/14 02:56:03;;;;;;;8.77;1.37;;;14.10;99.90;;;;;;5053281;28;20040;-67
2022/09/14 02:58:35;;;;;;;11.43;1.85;;;14.20;99.90;;;;;;5064956;28;20318;-68
2022/09/14 03:01:00;;;;;;;7.03;1.52;;;14.20;99.90;;;;;;5061521;28;20052;-67
2022/09/14 03:03:26;;;;;;;11.43;1.35;;;14.20;99.90;;;;;;5059977;28;20044;-67
2022/09/14 03:05:54;;;;;;;11.88;1.50;;;14.20;99.90;;;;;;5052596;28;20061;-67
2022/09/14 03:08:20;;;;;;;8.50;1.23;;;14.20;99.90;;;;;;5063519;28;20055;-67
2022/09/14 03:10:45;;;;;;;7.35;1.13;;;14.20;99.90;;;;;;5064500;28;20052;-67
2022/09/14 03:13:11;;;;;;;6.15;1.10;;;14.20;99.90;;;;;;5063501;28;20591;-67
2022/09/14 03:15:37;;;;;;;9.23;1.42;;;14.20;99.90;;;;;;5048024;28;20037;-67
2022/09/14 03:18:05;;;;;;;6.55;1.23;;;14.20;99.90;;;;;;5066606;28;20048;-67
2022/09/14 03:20:31;;;;;;;5.93;1.70;;;14.20;99.90;;;;;;5031513;28;20061;-67
2022/09/14 03:22:58;;;;;;;10.00;1.30;;;14.20;99.90;;;;;;5066359;28;20064;-67
2022/09/14 03:25:24;;;;;;;8.10;1.95;;;14.20;99.90;;;;;;5067150;28;20041;-67
2022/09/14 03:27:53;;;;;;;5.95;1.38;;;14.20;99.90;;;;;;5050997;28;20674;-67
2022/09/14 03:30:19;;;;;;;7.55;1.50;;;14.20;99.90;;;;;;5068416;28;20516;-67
2022/09/14 03:32:45;;;;;;;6.10;1.25;;;14.20;99.90;;;;;;5066827;28;20049;-67
2022/09/14 03:35:11;;;;;;;8.05;1.60;;;14.30;99.90;;;;;;5067430;28;20494;-67
2022/09/14 03:37:38;;;;;;;10.65;1.48;;;14.30;99.90;;;;;;5062183;28;20045;-67
2022/09/14 03:40:05;;;;;;;8.07;1.40;;;14.30;99.90;;;;;;5068351;28;20056;-67
2022/09/14 03:42:31;;;;;;;16.95;1.50;;;14.30;99.90;;;;;;5069407;28;20075;-67
2022/09/14 03:44:57;;;;;;;5.47;1.42;;;14.30;99.90;;;;;;5067751;28;20041;-67
2022/09/14 03:47:23;;;;;;;8.93;2.42;;;14.40;99.90;;;;;;5063396;28;21008;-67
2022/09/14 03:49:49;;;;;;;8.98;1.55;;;14.40;99.90;;;;;;5051171;28;20131;-67
2022/09/14 03:52:15;;;;;;;10.02;1.42;;;14.40;99.90;;;;;;5049706;28;20517;-67
2022/09/14 03:54:41;;;;;;;5.00;1.45;;;14.40;99.90;;;;;;5068405;28;20044;-67
2022/09/14 03:57:07;;;;;;;7.53;1.17;;;14.40;99.90;;;;;;5065263;28;20680;-67
2022/09/14 03:59:33;;;;;;;7.18;1.80;;;14.40;99.90;;;;;;5067686;28;20044;-67
2022/09/14 04:02:00;;;;;;;11.85;2.30;;;14.30;99.90;;;;;;5061549;28;20071;-67
2022/09/14 04:04:27;;;;;;;10.32;1.75;;;14.30;99.90;;;;;;5067081;28;20044;-67
2022/09/14 04:06:53;;;;;;;11.30;2.05;;;14.30;99.90;;;;;;5066162;28;20052;-67
2022/09/14 04:09:19;;;;;;;8.13;1.30;;;14.30;99.90;;;;;;5054693;28;20406;-67
2022/09/14 04:11:47;;;;;;;6.60;2.03;;;14.30;99.90;;;;;;5069036;28;20052;-67
2022/09/14 04:14:13;;;;;;;4.47;1.40;;;14.30;99.90;;;;;;5066011;28;20404;-67
2022/09/14 04:16:39;;;;;;;5.03;1.45;;;14.30;99.90;;;;;;5067419;28;20048;-67
2022/09/14 04:19:05;;;;;;;8.77;1.88;;;14.30;99.90;;;;;;5067132;28;20044;-67
2022/09/14 04:21:32;;;;;;;9.52;1.50;;;14.30;99.90;;;;;;5063049;28;20059;-67
2022/09/14 04:23:58;;;;;;;8.48;1.52;;;14.30;99.90;;;;;;5067272;28;20062;-67
2022/09/14 04:26:26;;;;;;;10.65;1.58;;;14.30;99.90;;;;;;5049087;28;20127;-67
2022/09/14 04:28:52;;;;;;;10.57;1.35;;;14.20;99.90;;;;;;5067842;28;20487;-67
2022/09/14 04:31:18;;;;;;;5.07;1.25;;;14.30;99.90;;;;;;5062858;28;20130;-67
2022/09/14 04:33:44;;;;;;;4.32;1.33;;;14.20;99.90;;;;;;5067346;28;20517;-67
2022/09/14 04:36:16;;;;;;;8.57;1.40;;;14.20;99.90;;;;;;5065801;28;20927;-67
2022/09/14 04:38:42;;;;;;;9.65;1.50;;;14.20;99.90;;;;;;5068076;28;20055;-67
2022/09/14 04:41:10;;;;;;;5.53;1.52;;;14.20;99.90;;;;;;5049135;28;20086;-67
2022/09/14 04:43:37;;;;;;;2.15;1.30;;;14.20;99.90;;;;;;5049176;28;20040;-68
2022/09/14 04:46:05;;;;;;;6.47;1.17;;;14.20;99.90;;;;;;5066672;28;20068;-67
2022/09/14 04:48:35;;;;;;;4.85;1.40;;;14.20;99.90;;;;;;5065460;28;20078;-67
2022/09/14 04:51:08;;;;;;;7.82;1.27;;;14.20;99.90;;;;;;5066663;28;20048;-67
2022/09/14 04:53:35;;;;;;;7.63;1.20;;;14.20;99.90;;;;;;5064773;28;20514;-67
2022/09/14 04:56:07;;;;;;;8.88;1.75;;;14.20;99.90;;;;;;5066469;28;20052;-67
2022/09/14 04:58:34;;;;;;;7.82;1.58;;;14.20;99.90;;;;;;5066412;28;20047;-67
2022/09/14 05:01:05;;;;;;;8.52;2.08;;;14.20;99.90;;;;;;5064171;28;20493;-67
2022/09/14 05:03:31;;;;;;;6.00;1.30;;;14.30;99.90;;;;;;5045818;28;20052;-68
2022/09/14 05:06:04;;;;;;;7.35;1.70;;;14.30;99.90;;;;;;5064904;28;20048;-67
2022/09/14 05:08:35;;;;;;;7.95;1.35;;;14.30;99.90;;;;;;5068153;28;20095;-67
2022/09/14 05:11:01;;;;;;;8.25;1.60;;;14.30;99.90;;;;;;5065153;28;20489;-67
2022/09/14 05:13:30;;;;;;;4.18;1.55;;;14.30;99.90;;;;;;5048427;28;20048;-67
2022/09/14 05:16:07;;;;;;;12.23;1.67;;;14.30;99.90;;;;;;5048899;28;20040;-67
2022/09/14 05:18:33;;;;;;;6.85;1.40;;;14.30;99.90;;;;;;5065028;28;20040;-67
2022/09/14 05:21:04;;;;;;;5.70;1.27;;;14.30;99.90;;;;;;5065744;28;20087;-67
2022/09/14 05:23:31;;;;;;;6.43;1.83;;;14.30;99.90;;;;;;5059608;28;20041;-67
2022/09/14 05:25:57;;;;;;;10.50;1.80;;;14.30;99.90;;;;;;5044715;28;20131;-67
2022/09/14 05:28:24;;;;;;;6.82;2.05;;;14.30;99.90;;;;;;5065247;28;20466;-67
2022/09/14 05:30:51;;;;;;;5.30;1.27;;;14.30;99.90;;;;;;5046673;28;20131;-67
2022/09/14 05:33:17;;;;;;;7.85;1.35;;;14.30;99.90;;;;;;5060922;28;20408;-67
2022/09/14 05:35:43;;;;;;;2.97;1.27;;;14.30;99.90;;;;;;5056229;28;20079;-67
2022/09/14 05:38:09;;;;;;;4.55;1.40;;;14.30;99.90;;;;;;5066886;28;20616;-67
2022/09/14 05:40:35;;;;;;;5.30;1.30;;;14.20;99.90;;;;;;5063269;28;20041;-67
2022/09/14 05:43:02;;;;;;;5.55;1.77;;;14.20;99.90;;;;;;5063175;28;20055;-67
2022/09/14 05:45:27;;;;;;;9.93;1.45;;;14.30;99.90;;;;;;5065180;28;20558;-67
2022/09/14 05:47:53;;;;;;;4.75;1.00;;;14.20;99.90;;;;;;5043278;28;20127;-67
2022/09/14 05:50:19;;;;;;;5.25;1.35;;;14.20;99.90;;;;;;5067000;28;20052;-67
2022/09/14 05:52:45;;;;;;;7.75;1.48;;;14.20;99.90;;;;;;5081117;28;20043;-66
2022/09/14 05:55:10;;;;;;;12.13;1.30;;;14.20;99.90;;;;;;5064357;28;20059;-67
2022/09/14 05:57:36;;;;;;;4.85;1.08;;;14.20;99.90;;;;;;5067517;28;20055;-68
2022/09/14 06:00:04;;;;;;;4.80;1.60;;;14.20;99.90;;;;;;5048491;28;20128;-67
2022/09/14 06:02:29;;;;;;;8.00;1.70;;;14.20;99.90;;;;;;5063807;28;20398;-67
2022/09/14 06:04:55;;;;;;;7.30;1.60;;;14.30;99.90;;;;;;5065503;28;20052;-67
2022/09/14 06:07:21;;;;;;;6.20;1.33;;;14.30;99.90;;;;;;5064032;28;20675;-67
2022/09/14 06:09:46;;;;;;;9.95;1.65;;;14.40;99.90;;;;;;5064647;28;20087;-67
2022/09/14 06:12:13;;;;;;;7.38;1.55;;;14.30;99.90;;;;;;5062979;28;20051;-67
2022/09/14 06:14:39;;;;;;;5.15;1.48;;;14.40;99.90;;;;;;5064056;28;20051;-67
2022/09/14 06:17:05;;;;;;;4.90;1.50;;;14.40;99.90;;;;;;5062691;28;20036;-67
2022/09/14 06:19:31;;;;;;;6.53;1.33;;;14.50;99.90;;;;;;5055768;28;20051;-67
2022/09/14 06:21:57;;;;;;;6.22;2.40;;;14.50;99.90;;;;;;5065079;28;20059;-67
2022/09/14 06:24:23;;;;;;;6.70;1.90;;;14.50;99.90;;;;;;5063639;28;20371;-67
2022/09/14 06:26:49;;;;;;;9.63;1.83;;;14.50;99.90;;;;;;5065426;28;20049;-68
2022/09/14 06:29:14;;;;;;;9.38;2.25;;;14.60;99.90;;;;;;5061981;28;20455;-67
2022/09/14 06:31:40;;;;;;;7.63;1.48;;;14.60;99.90;;;;;;5064118;28;20136;-67
2022/09/14 06:34:06;;;;;;;5.63;1.80;;;14.60;99.90;;;;;;5047989;28;20514;-67
2022/09/14 06:36:31;;;;;;;12.07;1.45;;;14.70;99.90;;;;;;5046665;28;20127;-67
2022/09/14 06:38:58;;;;;;;3.58;1.33;;;14.80;99.90;;;;;;5048724;28;20040;-68
2022/09/14 06:41:28;;;;;;;8.82;1.52;;;14.80;99.90;;;;;;5063671;28;20415;-68
2022/09/14 06:43:56;;;;;;;11.25;1.98;;;14.90;99.90;;;;;;5065404;28;20048;-67
2022/09/14 06:46:24;;;;;;;9.98;1.58;;;14.90;99.90;;;;;;5064091;28;20053;-67
2022/09/14 06:49:00;;;;;;;13.23;1.63;;;15.00;99.90;;;;;;5064254;28;20459;-67
2022/09/14 06:51:27;;;;;;;4.38;1.60;;;15.00;99.90;;;;;;5055715;28;20405;-67
2022/09/14 06:53:56;;;;;;;9.85;1.65;;;15.10;99.90;;;;;;5067647;28;20050;-67
2022/09/14 06:56:21;;;;;;;6.78;1.33;;;15.10;99.90;;;;;;5052103;28;20056;-67
2022/09/14 06:58:48;;;;;;;6.93;1.40;;;15.10;99.90;;;;;;5067537;28;20053;-67
2022/09/14 07:01:16;;;;;;;8.38;1.23;;;15.20;99.90;;;;;;5067723;28;20055;-67
2022/09/14 07:03:43;;;;;;;11.68;1.88;;;15.20;99.90;;;;;;5067032;28;20071;-67
2022/09/14 07:06:20;;;;;;;9.18;1.58;;;15.30;99.90;;;;;;5066013;28;20411;-67
2022/09/14 07:08:47;;;;;;;5.03;2.00;;;15.30;99.90;;;;;;5067857;28;20123;-67
2022/09/14 07:11:14;;;;;;;11.73;1.90;;;15.40;99.90;;;;;;5066076;28;20494;-67
2022/09/14 07:13:40;;;;;;;7.18;1.60;;;15.40;99.90;;;;;;5068055;28;20106;-67
2022/09/14 07:16:06;;;;;;;5.80;1.52;;;15.50;99.90;;;;;;5068953;28;20424;-67
2022/09/14 07:18:33;;;;;;;13.15;1.70;;;15.50;99.90;;;;;;5065675;28;20485;-67
2022/09/14 07:21:16;;;;;;;10.75;1.83;;;15.50;99.90;;;;;;5066884;28;20055;-67
2022/09/14 07:23:44;;;;;;;11.15;2.10;;;15.60;99.90;;;;;;5067105;28;20040;-67
2022/09/14 07:26:13;;;;;;;13.35;2.10;;;15.60;99.90;;;;;;5073423;28;20053;-67
2022/09/14 07:28:40;;;;;;;9.33;1.70;;;15.70;99.90;;;;;;5065273;28;20040;-67
2022/09/14 07:31:18;;;;;;;9.02;2.03;;;15.80;99.90;;;;;;5064243;28;20044;-67
2022/09/14 07:33:44;;;;;;;9.68;2.13;;;15.80;99.90;;;;;;5067419;28;20052;-67
2022/09/14 07:36:11;;;;;;;17.20;2.00;;;15.90;99.90;;;;;;5063665;28;20056;-67
2022/09/14 07:38:38;;;;;;;17.10;1.98;;;16.00;99.90;;;;;;5063160;28;20487;-67
2022/09/14 07:41:04;;;;;;;10.70;1.85;;;16.10;99.90;;;;;;5066374;28;20051;-67
2022/09/14 07:43:30;;;;;;;9.57;1.70;;;16.10;99.90;;;;;;5067633;28;20059;-68
2022/09/14 07:45:56;;;;;;;12.43;1.65;;;16.20;99.90;;;;;;5049486;28;20127;-67
2022/09/14 07:48:25;;;;;;;13.90;1.50;;;16.20;99.90;;;;;;5067276;28;20350;-67
2022/09/14 07:51:19;;;;;;;12.70;1.83;;;16.20;99.90;;;;;;5049611;28;20036;-67
2022/09/14 07:53:44;;;;;;;9.80;2.28;;;16.20;99.90;;;;;;5067604;28;20072;-67
2022/09/14 07:56:12;;;;;;;8.68;1.52;;;16.20;99.90;;;;;;5054732;28;20537;-67
2022/09/14 07:58:40;;;;;;;13.30;2.40;;;16.20;99.90;;;;;;5062720;28;20106;-67
2022/09/14 08:01:10;;;;;;;7.40;1.50;;;16.30;99.90;;;;;;5064282;28;20041;-67
2022/09/14 08:03:37;;;;;;;;;;;16.20;99.90;;;;;;5062478;28;20045;-67
2022/09/14 08:06:12;;;;;;;11.75;2.03;;;16.30;99.90;;;;;;5067644;28;20027;-67
2022/09/14 08:08:40;;;;;;;10.75;2.15;;;16.20;99.90;;;;;;5038145;28;20055;-67
2022/09/14 08:11:27;;;;;;;12.57;1.70;;;16.20;99.90;;;;;;5064084;28;20144;-67
2022/09/14 08:14:02;;;;;;;9.73;1.55;;;16.30;99.90;;;;;;5048798;28;20103;-67
2022/09/14 08:16:29;;;;;;;8.55;1.48;;;16.40;99.90;;;;;;5063338;28;20076;-67
2022/09/14 08:18:57;;;;;;;11.63;1.88;;;16.40;99.90;;;;;;5047884;28;20040;-67
2022/09/14 08:21:24;;;;;;;11.35;1.35;;;16.50;99.90;;;;;;5063676;28;20512;-67
2022/09/14 08:23:50;;;;;;;12.57;1.98;;;16.70;99.90;;;;;;5065087;28;20056;-68
2022/09/14 08:26:22;;;;;;;12.32;1.60;;;16.80;99.90;;;;;;5047451;28;20494;-68
2022/09/14 08:28:49;;;;;;;8.48;1.38;;;16.90;99.90;;;;;;5043986;28;20044;-67
2022/09/14 08:31:17;;;;;;;11.07;1.38;;;16.90;99.90;;;;;;5046971;28;20547;-67
2022/09/14 08:33:45;;;;;;;12.60;1.27;;;17.00;99.90;;;;;;5061099;28;20567;-67
2022/09/14 08:36:13;;;;;;;8.48;1.25;;;17.00;99.90;;;;;;5045955;28;20090;-67
2022/09/14 08:38:39;;;;;;;8.68;1.20;;;17.10;99.90;;;;;;5062327;28;20494;-67
2022/09/14 08:41:29;;;;;;;18.17;1.65;;;17.10;99.90;;;;;;5078946;28;20090;-67
2022/09/14 08:44:17;;;;;;;7.30;1.20;;;17.20;99.90;;;;;;5058038;28;20083;-67
2022/09/14 08:47:18;;;;;;;13.30;1.83;;;17.30;99.90;;;;;;5065317;28;20451;-67
2022/09/14 08:50:20;;;;;;;6.47;1.33;;;17.20;99.90;;;;;;5061342;28;20041;-67
2022/09/14 08:52:52;;;;;;;11.18;2.03;;;17.30;99.90;;;;;;5048277;28;20123;-67
2022/09/14 08:55:27;;;;;;;10.10;1.38;;;17.40;99.90;;;;;;5062032;28;20455;-67
2022/09/14 08:58:00;;;;;;;6.80;1.45;;;17.50;99.90;;;;;;5065316;28;20048;-67
2022/09/14 09:00:59;;;;;;;9.40;1.10;;;17.60;98.30;;;;;;5061694;28;20099;-67
2022/09/14 09:03:46;;;;;;;12.37;1.40;;;17.90;99.90;;;;;;5059043;28;20510;-67
2022/09/14 09:06:33;;;;;;;7.95;1.25;;;18.10;77.20;;;;;;5063869;28;20473;-67
2022/09/14 09:09:31;;;;;;;11.00;1.50;;;18.30;77.90;;;;;;5066871;28;20526;-67
2022/09/14 09:11:57;;;;;;;10.50;1.55;;;18.30;74.90;;;;;;5061790;28;20116;-67
2022/09/14 09:14:41;;;;;;;9.35;1.08;;;18.60;86.40;;;;;;5060102;28;20110;-67
2022/09/14 09:17:18;;;;;;;7.45;1.17;;;18.80;86.90;;;;;;5056276;28;20037;-67
2022/09/14 09:20:17;;;;;;;12.90;1.65;;;19.10;84.10;;;;;;5063414;28;20040;-67
2022/09/14 09:23:19;;;;;;;4.90;1.30;;;19.20;68.70;;;;;;5065882;28;20067;-67
2022/09/14 09:26:05;;;;;;;7.85;1.38;;;19.40;67.10;;;;;;5057308;28;20080;-67
2022/09/14 09:28:32;;;;;;;5.07;1.02;;;19.50;62.50;;;;;;5066402;28;20052;-67
2022/09/14 09:31:03;;;;;;;8.32;1.25;;;19.50;56.00;;;;;;5063271;28;20056;-67
2022/09/14 09:33:30;;;;;;;9.05;1.30;;;19.30;53.80;;;;;;5062281;28;20486;-67
2022/09/14 09:35:56;;;;;;;6.80;1.02;;;19.00;54.40;;;;;;5064653;28;20076;-67
2022/09/14 09:38:24;;;;;;;6.28;1.17;;;18.80;63.50;;;;;;5064943;28;20032;-67
2022/09/14 09:41:04;;;;;;;9.15;1.30;;;18.80;72.20;;;;;;5062270;28;20040;-67
2022/09/14 09:43:29;;;;;;;5.30;1.02;;;18.90;72.40;;;;;;5063788;28;20036;-67
2022/09/14 09:45:59;;;;;;;13.27;2.28;;;18.80;62.20;;;;;;5063233;28;20071;-67
2022/09/14 09:48:31;;;;;;;17.02;1.20;;;18.70;58.10;;;;;;5081234;28;20072;-67
2022/09/14 09:51:02;;;;;;;7.53;1.23;;;18.70;70.80;;;;;;5062571;28;20052;-67
2022/09/14 09:53:28;;;;;;;7.55;1.38;;;18.60;59.70;;;;;;5066113;28;20454;-67
2022/09/14 09:55:55;;;;;;;6.80;1.10;;;18.40;62.90;;;;;;5065670;28;20339;-67
2022/09/14 09:58:35;;;;;;;6.13;1.30;;;18.40;73.10;;;;;;5064155;28;20277;-67
2022/09/14 10:01:07;;;;;;;5.10;1.23;;;18.40;74.60;;;;;;5044023;28;20037;-67
2022/09/14 10:03:39;;;;;;;9.38;1.75;;;18.40;68.80;;;;;;5066032;28;20075;-66
2022/09/14 10:06:14;;;;;;;5.97;1.02;;;18.40;73.20;;;;;;5065460;28;20056;-67
2022/09/14 10:08:43;;;;;;;9.98;1.08;;;18.40;72.10;;;;;;5058331;28;20109;-68
2022/09/14 10:11:35;;;;;;;8.30;1.33;;;18.30;68.20;;;;;;5058419;28;20045;-67
2022/09/14 10:14:05;;;;;;;4.22;1.02;;;18.30;72.80;;;;;;5055464;28;20051;-67
2022/09/14 10:16:40;;;;;;;6.10;1.13;;;18.40;72.10;;;;;;5062304;28;20048;-67
2022/09/14 10:19:23;;;;;;;7.40;1.20;;;18.50;64.20;;;;;;5055527;28;20560;-67
2022/09/14 10:22:16;;;;;;;11.30;1.88;;;18.50;64.20;;;;;;5055228;28;20048;-67
2022/09/14 10:24:52;;;;;;;12.60;1.83;;;18.60;76.30;;;;;;5058520;28;20049;-67
2022/09/14 10:27:35;;;;;;;15.07;1.95;;;18.70;76.70;;;;;;5043730;28;20044;-67
2022/09/14 10:30:04;;;;;;;9.13;1.90;;;18.80;80.90;;;;;;5059377;28;20189;-66
2022/09/14 10:32:31;;;;;;;7.38;1.77;;;18.70;73.00;;;;;;5058900;28;20049;-67
2022/09/14 10:34:58;;;;;;;8.43;1.13;;;18.70;77.50;;;;;;5060061;28;20047;-67
2022/09/14 10:37:32;;;;;;;7.88;1.50;;;18.70;79.10;;;;;;5062903;28;20040;-67
2022/09/14 10:40:06;;;;;;;9.57;1.75;;;18.60;83.60;;;;;;5052557;28;20371;-67
2022/09/14 10:42:43;;;;;;;8.95;1.58;;;18.50;74.00;;;;;;5059069;28;20048;-66
2022/09/14 10:45:27;;;;;;;9.63;1.58;;;18.40;80.70;;;;;;5079602;28;20048;-67
2022/09/14 10:48:21;;;;;;;5.85;1.30;;;18.30;82.50;;;;;;5044855;28;20455;-67
2022/09/14 10:51:15;;;;;;;21.58;2.72;;;18.30;82.70;;;;;;5062733;28;20336;-67
2022/09/14 10:54:10;;;;;;;7.30;1.17;;;18.30;82.20;;;;;;5079530;28;20041;-67
2022/09/14 10:57:03;;;;;;;12.38;1.52;;;18.30;80.10;;;;;;5062937;28;20041;-67
2022/09/14 10:59:30;;;;;;;7.13;1.80;;;18.30;76.30;;;;;;5059799;28;20055;-67
2022/09/14 11:02:25;;;;;;;6.05;1.13;;;18.30;76.80;;;;;;5062890;28;20055;-67
2022/09/14 11:05:09;;;;;;;9.20;1.88;;;18.30;78.20;;;;;;5062001;28;20441;-66
2022/09/14 11:07:53;;;;;;;10.70;1.48;;;18.30;71.80;;;;;;5078111;28;20194;-67
2022/09/14 11:10:31;;;;;;;8.88;1.73;;;18.20;76.40;;;;;;5063764;28;20047;-67
2022/09/14 11:13:27;;;;;;;8.23;1.52;;;18.20;77.10;;;;;;5077855;28;20040;-66
2022/09/14 11:16:19;;;;;;;10.40;1.20;;;18.20;78.50;;;;;;5081254;28;20261;-67
2022/09/14 11:19:12;;;;;;;3.65;1.00;;;18.20;72.90;;;;;;5072079;28;20041;-67
2022/09/14 11:21:59;;;;;;;2.75;1.00;;;18.30;76.90;;;;;;5075246;28;20063;-67
2022/09/14 11:24:48;;;;;;;8.57;1.42;;;18.60;64.40;;;;;;5052166;28;20045;-67
2022/09/14 11:27:37;;;;;;;6.75;1.17;;;18.80;60.60;;;;;;5062337;28;20414;-66
2022/09/14 11:30:10;;;;;;;5.65;1.15;;;18.60;65.30;;;;;;5068768;28;20053;-67
2022/09/14 11:32:52;;;;;;;7.57;1.20;;;18.60;68.00;;;;;;5058178;28;20102;-67
2022/09/14 11:35:20;;;;;;;5.18;1.05;;;18.70;68.40;;;;;;5057519;28;20548;-67
2022/09/14 11:38:06;;;;;;;8.77;1.33;;;18.90;65.00;;;;;;5062939;28;20455;-67
2022/09/14 11:40:45;;;;;;;7.10;1.45;;;19.00;65.10;;;;;;5054971;28;20170;-67
2022/09/14 11:43:39;;;;;;;6.85;1.30;;;19.10;57.30;;;;;;5081903;28;20564;-67
2022/09/14 11:46:12;;;;;;;6.30;1.00;;;19.10;56.00;;;;;;5069420;28;20403;-67
2022/09/14 11:48:46;;;;;;;5.93;1.00;;;19.00;53.70;;;;;;5067207;28;20102;-67
2022/09/14 11:51:14;;;;;;;3.78;0.85;;;19.10;60.90;;;;;;5067582;28;20549;-67
2022/09/14 11:53:45;;;;;;;4.70;1.38;;;19.20;60.10;;;;;;5067514;28;20127;-67
2022/09/14 11:56:37;;;;;;;7.00;1.08;;;19.30;58.30;;;;;;5067945;28;20076;-67
2022/09/14 11:59:06;;;;;;;9.07;1.05;;;19.20;48.80;;;;;;5047899;28;20063;-67
2022/09/14 12:01:40;;;;;;;15.93;2.05;;;19.10;59.60;;;;;;5065512;28;20567;-67
2022/09/14 12:04:09;;;;;;;8.98;1.33;;;19.10;48.80;;;;;;5051000;28;20425;-66
2022/09/14 12:06:34;;;;;;;4.65;0.90;;;19.10;52.90;;;;;;5067367;28;20076;-67
2022/09/14 12:09:23;;;;;;;3.92;1.17;;;19.20;64.30;;;;;;5065982;28;20138;-67
2022/09/14 12:11:51;;;;;;;10.13;1.20;;;19.20;55.60;;;;;;5049570;28;20094;-67
2022/09/14 12:14:34;;;;;;;8.97;1.17;;;19.30;55.40;;;;;;5043973;28;20040;-67
2022/09/14 12:17:04;;;;;;;14.23;2.15;;;19.20;51.50;;;;;;5067723;28;20148;-68
2022/09/14 12:19:31;;;;;;;8.32;1.15;;;19.10;52.70;;;;;;5066784;28;20040;-67
2022/09/14 12:22:37;;;;;;;6.15;1.65;;;19.10;48.80;;;;;;5065952;28;20524;-67
2022/09/14 12:25:09;;;;;;;7.95;1.67;;;19.10;50.20;;;;;;5049769;28;20055;-67
2022/09/14 12:27:42;;;;;;;5.72;1.55;;;19.00;47.40;;;;;;5034090;28;20041;-67
2022/09/14 12:30:39;;;;;;;3.53;1.42;;;18.90;46.50;;;;;;5061736;28;20426;-67
2022/09/14 12:33:33;;;;;;;10.80;1.70;;;18.90;58.40;;;;;;5063740;28;20060;-67
2022/09/14 12:35:59;;;;;;;4.97;1.60;;;18.90;47.00;;;;;;5035107;28;20045;-67
2022/09/14 12:38:28;;;;;;;4.93;1.10;;;18.80;52.20;;;;;;5066858;28;20047;-67
2022/09/14 12:41:17;;;;;;;3.17;0.80;;;18.70;53.60;;;;;;5061902;28;20055;-67
2022/09/14 12:43:53;;;;;;;10.82;1.83;;;18.70;51.20;;;;;;5062698;28;20161;-67
2022/09/14 12:46:18;;;;;;;2.72;1.10;;;18.60;61.70;;;;;;5055738;28;20056;-67
2022/09/14 12:48:47;;;;;;;4.82;1.00;;;18.60;58.10;;;;;;5066798;28;20040;-67
2022/09/14 12:54:08;;;;;;;6.00;1.25;;;18.40;53.20;;;;;;5065246;28;20076;-67
2022/09/14 12:56:53;;;;;;;11.63;1.65;;;18.50;59.10;;;;;;5061952;28;20103;-66
2022/09/14 12:59:40;;;;;;;3.83;1.20;;;18.60;62.60;;;;;;5068396;28;20460;-67
2022/09/14 13:02:23;;;;;;;2.88;1.27;;;18.80;62.50;;;;;;5063421;28;20483;-67
2022/09/14 13:04:55;;;;;;;7.20;1.13;;;18.90;60.10;;;;;;5063469;28;20041;-67
2022/09/14 13:07:24;;;;;;;3.85;0.82;;;19.00;58.80;;;;;;5066771;28;20044;-67
2022/09/14 13:09:56;;;;;;;8.95;1.13;;;18.90;58.20;;;;;;5062361;28;20033;-67
2022/09/14 13:12:40;;;;;;;4.93;1.30;;;18.80;55.60;;;;;;5053038;28;20044;-67
2022/09/14 13:15:31;;;;;;;4.15;1.42;;;18.60;56.50;;;;;;5065584;28;20052;-67
2022/09/14 13:18:29;;;;;;;3.40;1.05;;;18.60;61.80;;;;;;5065192;28;20059;-67